createdAt,value
2023-04-14T00:00:05.527Z,76.20
2023-04-14T00:02:42.559Z,81.30
2023-04-14T00:05:13.442Z,78.28
2023-04-14T00:07:43.494Z,65.57
2023-04-14T00:10:13.640Z,72.38
2023-04-14T00:12:43.795Z,65.47
2023-04-14T00:15:13.925Z,66.40
2023-04-14T00:17:44.256Z,63.10
2023-04-14T00:20:14.156Z,67.40
2023-04-14T00:22:44.175Z,62.17
2023-04-14T00:25:14.073Z,63.03
2023-04-14T00:27:44.337Z,75.50
2023-04-14T00:30:14.365Z,66.93
2023-04-14T00:32:44.315Z,62.53
2023-04-14T00:35:14.165Z,65.30
2023-04-14T00:37:44.409Z,67.13
2023-04-14T00:40:14.295Z,65.82
2023-04-14T00:42:48.762Z,67.10
2023-04-14T00:45:18.997Z,67.60
2023-04-14T00:47:52.176Z,70.85
2023-04-14T00:50:23.443Z,77.72
2023-04-14T00:52:55.064Z,72.57
2023-04-14T00:55:25.385Z,72.97
2023-04-14T00:57:56.557Z,69.22
2023-04-14T01:00:27.043Z,68.50
2023-04-14T01:02:57.840Z,70.05
2023-04-14T01:05:28.263Z,66.25
2023-04-14T01:07:58.292Z,72.10
2023-04-14T01:10:36.410Z,70.72
2023-04-14T01:13:35.074Z,71.30
2023-04-14T01:16:31.897Z,67.70
2023-04-14T01:19:38.896Z,78.60
2023-04-14T01:22:11.192Z,68.93
2023-04-14T01:25:20.478Z,72.90
2023-04-14T01:28:29.557Z,69.43
2023-04-14T01:31:26.010Z,73.38
2023-04-14T01:34:35.284Z,75.55
2023-04-14T01:37:17.874Z,71.35
2023-04-14T01:40:00.603Z,65.75
2023-04-14T01:42:38.230Z,65.85
2023-04-14T01:45:17.495Z,65.07
2023-04-14T01:47:48.427Z,65.93
2023-04-14T01:50:21.192Z,67.63
2023-04-14T01:52:58.801Z,67.45
2023-04-14T01:55:31.580Z,64.82
2023-04-14T01:58:03.186Z,66.75
2023-04-14T02:00:37.422Z,64.70
2023-04-14T02:03:09.501Z,68.75
2023-04-14T02:05:41.737Z,67.07
2023-04-14T02:08:15.683Z,67.60
2023-04-14T02:10:48.265Z,67.40
2023-04-14T02:13:21.565Z,65.68
2023-04-14T02:15:53.188Z,71.25
2023-04-14T02:18:25.679Z,67.47
2023-04-14T02:20:57.791Z,69.40
2023-04-14T02:23:28.163Z,67.10
2023-04-14T02:26:04.456Z,66.47
2023-04-14T02:28:37.124Z,65.45
2023-04-14T02:31:14.828Z,62.10
2023-04-14T02:33:47.823Z,66.72
2023-04-14T02:36:25.180Z,63.50
2023-04-14T02:39:01.030Z,64.93
2023-04-14T02:41:33.367Z,64.80
2023-04-14T02:44:20.046Z,62.22
2023-04-14T02:47:08.306Z,65.15
2023-04-14T02:49:46.464Z,63.22
2023-04-14T02:52:21.069Z,61.92
2023-04-14T02:54:53.609Z,63.90
2023-04-14T02:57:25.271Z,63.88
2023-04-14T02:59:57.568Z,64.13
2023-04-14T03:02:29.364Z,62.20
2023-04-14T03:05:08.040Z,64.03
2023-04-14T03:07:58.161Z,65.53
2023-04-14T03:10:30.488Z,64.47
2023-04-14T03:13:05.647Z,63.33
2023-04-14T03:15:37.705Z,62.47
2023-04-14T03:18:09.005Z,61.80
2023-04-14T03:20:39.970Z,63.97
2023-04-14T03:23:13.835Z,61.72
2023-04-14T03:25:53.761Z,63.05
2023-04-14T03:28:32.327Z,60.63
2023-04-14T03:31:07.090Z,61.75
2023-04-14T03:33:55.791Z,61.63
2023-04-14T03:36:32.984Z,59.75
2023-04-14T03:39:06.640Z,60.20
2023-04-14T03:41:49.089Z,61.95
2023-04-14T03:44:21.788Z,59.85
2023-04-14T03:46:56.010Z,57.92
2023-04-14T03:49:27.543Z,60.00
2023-04-14T03:52:09.636Z,57.72
2023-04-14T03:54:43.462Z,63.67
2023-04-14T03:57:19.312Z,56.35
2023-04-14T03:59:52.139Z,58.00
2023-04-14T04:02:27.857Z,54.83
2023-04-14T04:05:00.872Z,57.42
2023-04-14T04:07:33.645Z,57.28
2023-04-14T04:10:08.709Z,56.00
2023-04-14T04:12:40.809Z,56.28
2023-04-14T04:15:12.127Z,56.88
2023-04-14T04:17:45.876Z,55.15
2023-04-14T04:20:17.889Z,57.33
2023-04-14T04:22:53.901Z,56.85
2023-04-14T04:25:24.052Z,57.15
2023-04-14T04:28:04.172Z,55.85
2023-04-14T04:30:40.408Z,57.75
2023-04-14T04:33:12.390Z,54.25
2023-04-14T04:35:44.650Z,57.55
2023-04-14T04:38:15.683Z,56.15
2023-04-14T04:40:48.225Z,54.17
2023-04-14T04:43:24.254Z,54.17
2023-04-14T04:46:26.506Z,56.08
2023-04-14T04:48:57.580Z,55.08
2023-04-14T04:51:30.265Z,54.83
2023-04-14T04:54:00.341Z,54.85
2023-04-14T04:56:30.580Z,53.60
2023-04-14T04:59:04.879Z,54.75
2023-04-14T05:01:35.079Z,54.20
2023-04-14T05:04:05.685Z,54.55
2023-04-14T05:06:39.340Z,52.53
2023-04-14T05:09:09.590Z,52.75
2023-04-14T05:11:39.522Z,51.92
2023-04-14T05:14:09.743Z,53.20
2023-04-14T05:16:39.634Z,51.85
2023-04-14T05:19:09.666Z,52.65
2023-04-14T05:21:39.518Z,51.10
2023-04-14T05:24:11.146Z,62.33
2023-04-14T05:29:14.165Z,60.22
2023-04-14T05:31:44.106Z,51.22
2023-04-14T05:34:14.209Z,50.45
2023-04-14T05:36:44.112Z,50.92
2023-04-14T05:39:15.078Z,48.85
2023-04-14T05:41:44.857Z,50.88
2023-04-14T05:44:14.991Z,50.35
2023-04-14T05:46:44.935Z,49.45
2023-04-14T05:49:14.982Z,50.55
2023-04-14T05:51:45.363Z,50.00
2023-04-14T05:54:15.970Z,49.35
2023-04-14T05:56:45.786Z,49.70
2023-04-14T05:59:17.795Z,50.22
2023-04-14T06:01:48.082Z,49.10
2023-04-14T06:04:18.427Z,51.60
2023-04-14T06:06:48.621Z,50.38
2023-04-14T06:09:18.372Z,50.28
2023-04-14T06:11:48.333Z,50.72
2023-04-14T06:14:18.142Z,50.65
2023-04-14T06:16:48.189Z,48.97
2023-04-14T06:19:20.241Z,49.95
2023-04-14T06:21:50.517Z,51.08
2023-04-14T06:24:20.364Z,51.38
2023-04-14T06:26:50.373Z,52.90
2023-04-14T06:29:20.713Z,51.70
2023-04-14T06:31:53.221Z,51.75
2023-04-14T06:34:23.415Z,53.88
2023-04-14T06:36:54.392Z,52.17
2023-04-14T06:39:24.826Z,51.10
2023-04-14T06:41:54.760Z,51.05
2023-04-14T06:44:25.879Z,49.83
2023-04-14T06:46:57.167Z,52.13
2023-04-14T06:49:27.418Z,51.92
2023-04-14T06:51:57.826Z,50.17
2023-04-14T06:54:28.126Z,50.13
2023-04-14T06:56:59.505Z,50.55
2023-04-14T06:59:31.349Z,50.20
2023-04-14T07:02:01.290Z,49.58
2023-04-14T07:04:31.645Z,51.92
2023-04-14T07:07:03.004Z,51.22
2023-04-14T07:09:33.271Z,51.40
2023-04-14T07:12:05.534Z,49.80
2023-04-14T07:14:35.727Z,50.78
2023-04-14T07:17:05.500Z,49.63
2023-04-14T07:19:35.482Z,48.85
2023-04-14T07:22:05.349Z,50.83
2023-04-14T07:24:35.539Z,49.65
2023-04-14T07:27:05.302Z,51.97
2023-04-14T07:29:36.392Z,47.85
2023-04-14T07:32:06.718Z,50.78
2023-04-14T07:34:36.532Z,51.03
2023-04-14T07:37:06.460Z,52.22
2023-04-14T07:39:36.935Z,50.03
2023-04-14T07:42:07.331Z,50.83
2023-04-14T07:44:37.484Z,50.53
2023-04-14T07:47:07.475Z,50.85
2023-04-14T07:49:38.408Z,49.13
2023-04-14T07:52:09.280Z,50.42
2023-04-14T07:54:39.021Z,50.30
2023-04-14T07:57:11.467Z,52.65
2023-04-14T07:59:44.313Z,52.10
2023-04-14T08:02:14.501Z,51.83
2023-04-14T08:04:44.710Z,50.33
2023-04-14T08:07:14.675Z,50.42
2023-04-14T08:09:44.948Z,49.60
2023-04-14T08:12:15.239Z,51.03
2023-04-14T08:14:45.179Z,50.10
2023-04-14T08:17:15.565Z,53.10
2023-04-14T08:19:45.360Z,53.03
2023-04-14T08:22:15.516Z,52.72
2023-04-14T08:24:45.317Z,50.05
2023-04-14T08:27:15.377Z,50.08
2023-04-14T08:29:45.218Z,51.00
2023-04-14T08:32:15.479Z,50.45
2023-04-14T08:35:39.536Z,50.70
2023-04-14T08:37:35.929Z,50.85
2023-04-14T08:40:06.359Z,49.63
2023-04-14T08:42:36.411Z,50.28
2023-04-14T08:45:06.589Z,50.88
2023-04-14T08:47:39.784Z,51.30
2023-04-14T08:50:17.981Z,51.03
2023-04-14T08:52:51.730Z,50.33
2023-04-14T08:55:22.171Z,51.45
2023-04-14T08:57:53.697Z,51.10
2023-04-14T09:00:24.508Z,51.95
2023-04-14T09:02:56.367Z,52.67
2023-04-14T09:05:27.556Z,52.22
2023-04-14T09:07:57.845Z,51.75
2023-04-14T09:10:28.497Z,54.10
2023-04-14T09:12:59.187Z,53.85
2023-04-14T09:15:30.249Z,52.22
2023-04-14T09:18:00.325Z,51.03
2023-04-14T09:20:34.487Z,52.22
2023-04-14T09:23:11.542Z,52.17
2023-04-14T09:25:42.677Z,52.28
2023-04-14T09:28:12.926Z,51.00
2023-04-14T09:30:43.248Z,61.13
2023-04-14T09:33:24.052Z,51.75
2023-04-14T09:35:54.534Z,53.20
2023-04-14T09:38:44.199Z,52.55
2023-04-14T09:41:19.228Z,52.05
2023-04-14T09:43:49.481Z,53.08
2023-04-14T09:46:19.421Z,53.05
2023-04-14T09:48:59.267Z,50.22
2023-04-14T09:51:34.612Z,50.35
2023-04-14T09:54:06.549Z,54.63
2023-04-14T09:56:36.969Z,53.85
2023-04-14T09:59:07.088Z,54.17
2023-04-14T10:01:38.212Z,53.47
2023-04-14T10:04:25.466Z,53.60
2023-04-14T10:06:59.848Z,53.13
2023-04-14T10:09:31.435Z,53.85
2023-04-14T10:12:21.210Z,53.65
2023-04-14T10:14:51.568Z,62.85
2023-04-14T10:17:21.799Z,56.05
2023-04-14T10:19:52.028Z,55.50
2023-04-14T10:22:22.640Z,55.92
2023-04-14T10:24:54.115Z,55.53
2023-04-14T10:27:24.654Z,55.55
2023-04-14T10:29:55.405Z,55.33
2023-04-14T10:32:28.019Z,57.38
2023-04-14T10:35:10.764Z,57.25
2023-04-14T10:37:40.766Z,57.88
2023-04-14T10:40:11.334Z,57.55
2023-04-14T10:43:01.010Z,58.38
2023-04-14T10:45:31.020Z,57.10
2023-04-14T10:50:50.575Z,58.00
2023-04-14T10:53:20.559Z,56.63
2023-04-14T10:55:52.033Z,56.33
2023-04-14T10:58:24.828Z,59.17
2023-04-14T11:00:56.016Z,57.97
2023-04-14T11:03:28.250Z,64.50
2023-04-14T11:06:00.044Z,62.28
2023-04-14T11:08:37.374Z,63.58
2023-04-14T11:11:09.133Z,61.28
2023-04-14T11:13:40.343Z,64.55
2023-04-14T11:16:10.537Z,88.13
2023-04-14T11:18:46.779Z,78.50
2023-04-14T11:21:19.880Z,80.90
2023-04-14T11:23:50.775Z,82.43
2023-04-14T11:26:21.167Z,76.10
2023-04-14T11:28:50.998Z,90.15
2023-04-14T11:31:23.234Z,93.93
2023-04-14T11:33:53.323Z,76.45
2023-04-14T11:36:23.159Z,79.38
2023-04-14T11:38:53.417Z,87.53
2023-04-14T11:41:23.691Z,79.55
2023-04-14T11:43:54.501Z,73.72
2023-04-14T11:46:24.752Z,78.15
2023-04-14T11:48:59.103Z,102.82
2023-04-14T11:51:33.864Z,102.68
2023-04-14T11:54:04.842Z,115.93
2023-04-14T11:56:35.284Z,113.10
2023-04-14T11:59:06.883Z,94.38
2023-04-14T12:01:37.130Z,95.25
2023-04-14T12:04:08.102Z,102.30
2023-04-14T12:06:40.695Z,90.68
2023-04-14T12:09:13.719Z,86.82
2023-04-14T12:11:54.788Z,110.68
2023-04-14T12:14:24.963Z,115.70
2023-04-14T12:16:54.858Z,201.07
2023-04-14T12:19:25.277Z,200.85
2023-04-14T12:21:55.197Z,154.30
2023-04-14T12:24:25.372Z,92.53
2023-04-14T12:26:55.198Z,128.38
2023-04-14T12:29:25.449Z,157.70
2023-04-14T12:31:58.901Z,142.18
2023-04-14T12:34:29.781Z,127.88
2023-04-14T12:36:59.682Z,139.00
2023-04-14T12:39:30.009Z,153.45
2023-04-14T12:42:01.079Z,182.82
2023-04-14T12:44:31.886Z,176.65
2023-04-14T12:47:01.750Z,150.25
2023-04-14T12:49:37.798Z,142.68
2023-04-14T12:52:09.626Z,110.20
2023-04-14T12:54:59.501Z,105.97
2023-04-14T12:57:30.540Z,147.18
2023-04-14T13:00:06.568Z,156.32
2023-04-14T13:02:37.865Z,162.13
2023-04-14T13:05:08.342Z,161.45
2023-04-14T13:07:38.288Z,133.25
2023-04-14T13:10:09.212Z,117.88
2023-04-14T13:12:39.201Z,108.00
2023-04-14T13:16:10.296Z,115.35
2023-04-14T13:18:00.575Z,143.88
2023-04-14T13:20:32.441Z,156.07
2023-04-14T13:23:02.919Z,120.30
2023-04-14T13:25:32.725Z,88.68
2023-04-14T13:28:02.877Z,82.22
2023-04-14T13:30:33.764Z,94.75
2023-04-14T13:33:03.982Z,96.40
2023-04-14T13:35:33.854Z,117.18
2023-04-14T13:38:04.023Z,137.52
2023-04-14T13:40:34.129Z,124.32
2023-04-14T13:43:04.726Z,115.65
2023-04-14T13:45:35.537Z,102.30
2023-04-14T13:48:05.920Z,91.40
2023-04-14T13:50:35.877Z,90.60
2023-04-14T13:53:06.149Z,82.97
2023-04-14T13:55:37.511Z,86.10
2023-04-14T13:58:08.266Z,84.97
2023-04-14T14:00:38.388Z,85.20
2023-04-14T14:03:08.713Z,85.78
2023-04-14T14:05:38.598Z,81.85
2023-04-14T14:08:08.659Z,82.38
2023-04-14T14:10:38.725Z,86.85
2023-04-14T14:13:08.991Z,82.25
2023-04-14T14:15:39.832Z,82.45
2023-04-14T14:18:13.328Z,80.30
2023-04-14T14:20:43.464Z,91.30
2023-04-14T14:23:14.678Z,92.70
2023-04-14T14:25:47.050Z,97.18
2023-04-14T14:28:17.077Z,96.20
2023-04-14T14:30:46.931Z,114.05
2023-04-14T14:33:17.507Z,123.95
2023-04-14T14:35:47.751Z,108.20
2023-04-14T14:38:18.187Z,97.45
2023-04-14T14:40:48.676Z,95.25
2023-04-14T14:43:18.665Z,103.75
2023-04-14T14:45:48.669Z,106.90
2023-04-14T14:48:19.077Z,100.05
2023-04-14T14:50:49.003Z,99.65
2023-04-14T14:53:19.034Z,89.53
2023-04-14T14:55:48.851Z,90.65
2023-04-14T14:58:19.690Z,81.88
2023-04-14T15:00:49.665Z,82.03
2023-04-14T15:03:22.640Z,83.18
2023-04-14T15:05:56.004Z,83.00
2023-04-14T15:08:26.125Z,84.93
2023-04-14T15:10:56.214Z,86.07
2023-04-14T15:13:26.505Z,79.47
2023-04-14T15:15:56.364Z,81.88
2023-04-14T15:18:26.548Z,83.47
2023-04-14T15:20:57.018Z,86.25
2023-04-14T15:23:27.761Z,93.35
2023-04-14T15:25:57.702Z,107.22
2023-04-14T15:28:27.696Z,105.40
2023-04-14T15:30:57.641Z,95.45
2023-04-14T15:33:28.441Z,79.28
2023-04-14T15:35:58.534Z,78.75
2023-04-14T15:38:28.615Z,76.60
2023-04-14T15:40:59.159Z,73.85
2023-04-14T15:43:30.594Z,75.63
2023-04-14T15:46:00.811Z,82.95
2023-04-14T15:48:31.137Z,71.63
2023-04-14T15:51:01.274Z,78.32
2023-04-14T15:53:31.135Z,74.07
2023-04-14T15:56:01.390Z,72.40
2023-04-14T15:58:31.887Z,71.53
2023-04-14T16:01:02.261Z,73.85
2023-04-14T16:03:32.368Z,74.75
2023-04-14T16:06:08.616Z,73.55
2023-04-14T16:08:38.898Z,75.18
2023-04-14T16:11:09.512Z,71.85
2023-04-14T16:13:39.852Z,74.82
2023-04-14T16:16:09.755Z,79.15
2023-04-14T16:18:39.737Z,123.78
2023-04-14T16:21:10.011Z,173.90
2023-04-14T16:23:40.183Z,153.85
2023-04-14T16:26:10.175Z,159.30
2023-04-14T16:28:40.532Z,116.20
2023-04-14T16:31:10.858Z,93.88
2023-04-14T16:33:41.134Z,93.47
2023-04-14T16:36:11.108Z,116.05
2023-04-14T16:38:41.208Z,111.28
2023-04-14T16:41:12.131Z,113.68
2023-04-14T16:43:42.292Z,108.28
2023-04-14T16:46:12.436Z,99.13
2023-04-14T16:48:42.841Z,88.75
2023-04-14T16:51:13.734Z,92.68
2023-04-14T16:53:45.649Z,89.15
2023-04-14T16:56:15.816Z,91.68
2023-04-14T16:58:46.752Z,85.00
2023-04-14T17:01:17.517Z,86.00
2023-04-14T17:03:47.876Z,81.55
2023-04-14T17:06:17.741Z,75.95
2023-04-14T17:08:48.004Z,74.57
2023-04-14T17:11:18.146Z,77.40
2023-04-14T17:13:48.176Z,73.68
2023-04-14T17:16:18.179Z,79.90
2023-04-14T17:18:49.796Z,81.97
2023-04-14T17:21:19.819Z,73.60
2023-04-14T17:23:50.332Z,79.30
2023-04-14T17:26:21.522Z,75.47
2023-04-14T17:28:52.004Z,72.75
2023-04-14T17:31:22.521Z,73.95
2023-04-14T17:33:52.836Z,76.65
2023-04-14T17:36:22.698Z,71.13
2023-04-14T17:38:54.009Z,68.70
2023-04-14T17:41:24.368Z,67.65
2023-04-14T17:43:54.334Z,67.22
2023-04-14T17:46:30.900Z,75.03
2023-04-14T17:49:05.120Z,77.75
2023-04-14T17:51:35.880Z,74.90
2023-04-14T17:54:07.127Z,80.72
2023-04-14T17:56:37.176Z,81.38
2023-04-14T17:59:07.269Z,94.63
2023-04-14T18:01:37.681Z,91.63
2023-04-14T18:04:07.676Z,82.22
2023-04-14T18:06:38.076Z,79.18
2023-04-14T18:09:07.889Z,77.25
2023-04-14T18:11:38.131Z,78.78
2023-04-14T18:14:08.198Z,73.32
2023-04-14T18:16:38.969Z,68.70
2023-04-14T18:19:08.981Z,74.00
2023-04-14T18:21:39.634Z,90.20
2023-04-14T18:26:42.636Z,84.75
2023-04-14T18:29:13.562Z,82.55
2023-04-14T18:31:44.134Z,72.30
2023-04-14T18:34:15.298Z,74.47
2023-04-14T18:36:45.785Z,210.95
2023-04-14T18:39:17.759Z,208.85
2023-04-14T18:41:49.184Z,161.57
2023-04-14T18:44:19.182Z,102.03
2023-04-14T18:46:49.737Z,83.68
2023-04-14T18:49:20.583Z,77.25
2023-04-14T18:51:51.043Z,80.03
2023-04-14T18:54:20.889Z,78.82
2023-04-14T18:56:51.430Z,94.75
2023-04-14T18:59:21.569Z,95.10
2023-04-14T19:01:51.482Z,92.30
2023-04-14T19:04:22.440Z,96.45
2023-04-14T19:06:52.554Z,93.85
2023-04-14T19:09:22.343Z,90.90
2023-04-14T19:11:52.498Z,89.13
2023-04-14T19:14:22.397Z,90.97
2023-04-14T19:16:52.309Z,87.45
2023-04-14T19:19:22.067Z,88.38
2023-04-14T19:21:52.171Z,81.43
2023-04-14T19:24:21.905Z,97.00
2023-04-14T19:26:51.834Z,83.07
2023-04-14T19:29:21.659Z,80.13
2023-04-14T19:31:51.856Z,73.95
2023-04-14T19:34:21.690Z,70.22
2023-04-14T19:36:52.031Z,69.30
2023-04-14T19:39:22.423Z,67.30
2023-04-14T19:41:52.825Z,69.10
2023-04-14T19:44:22.574Z,70.80
2023-04-14T19:46:53.057Z,70.13
2023-04-14T19:49:22.996Z,70.40
2023-04-14T19:51:54.221Z,70.60
2023-04-14T19:54:24.174Z,69.90
2023-04-14T19:56:53.970Z,69.43
2023-04-14T19:59:24.495Z,69.95
2023-04-14T20:01:55.305Z,74.70
2023-04-14T20:04:25.814Z,71.80
2023-04-14T20:06:56.741Z,70.72
2023-04-14T20:09:27.409Z,72.30
2023-04-14T20:11:57.574Z,73.05
2023-04-14T20:14:27.462Z,74.85
2023-04-14T20:16:57.960Z,76.10
2023-04-14T20:19:27.878Z,75.15
2023-04-14T20:21:58.092Z,74.35
2023-04-14T20:24:27.961Z,76.40
2023-04-14T20:26:57.941Z,75.70
2023-04-14T20:29:27.874Z,75.32
2023-04-14T20:31:57.832Z,75.90
2023-04-14T20:34:28.080Z,75.63
2023-04-14T20:36:58.105Z,74.43
2023-04-14T20:39:27.921Z,73.75
2023-04-14T20:41:58.078Z,75.07
2023-04-14T20:44:28.017Z,75.72
2023-04-14T20:46:58.576Z,76.10
2023-04-14T20:49:28.615Z,75.93
2023-04-14T20:51:59.913Z,76.15
2023-04-14T20:54:30.106Z,78.82
2023-04-14T20:57:00.002Z,76.22
2023-04-14T20:59:30.713Z,75.47
2023-04-14T21:02:00.798Z,74.68
2023-04-14T21:04:30.633Z,76.03
2023-04-14T21:07:00.733Z,76.50
2023-04-14T21:09:31.585Z,76.55
2023-04-14T21:12:14.685Z,75.93
2023-04-14T21:15:43.501Z,77.43
2023-04-14T21:17:37.484Z,79.43
2023-04-14T21:20:08.107Z,85.30
2023-04-14T21:22:37.974Z,81.47
2023-04-14T21:25:08.582Z,84.57
2023-04-14T21:27:38.818Z,82.03
2023-04-14T21:30:10.580Z,83.53
2023-04-14T21:32:41.501Z,83.43
2023-04-14T21:35:11.753Z,85.97
2023-04-14T21:37:41.486Z,79.82
2023-04-14T21:40:12.601Z,90.03
2023-04-14T21:42:42.366Z,101.07
2023-04-14T21:45:12.334Z,94.18
2023-04-14T21:47:42.600Z,94.70
2023-04-14T21:50:12.630Z,90.40
2023-04-14T21:52:42.944Z,94.13
2023-04-14T21:55:12.675Z,100.93
2023-04-14T21:57:49.671Z,93.28
2023-04-14T22:00:19.908Z,140.75
2023-04-14T22:02:50.229Z,184.20
2023-04-14T22:05:21.369Z,144.90
2023-04-14T22:07:51.388Z,113.78
2023-04-14T22:10:23.149Z,104.25
2023-04-14T22:12:53.464Z,96.43
2023-04-14T22:15:23.808Z,97.47
2023-04-14T22:17:53.689Z,100.35
2023-04-14T22:20:25.231Z,106.40
2023-04-14T22:22:56.049Z,102.18
2023-04-14T22:25:25.993Z,103.43
2023-04-14T22:27:56.107Z,90.07
2023-04-14T22:30:25.810Z,87.30
2023-04-14T22:32:55.680Z,97.05
2023-04-14T22:35:25.580Z,90.28
2023-04-14T22:37:55.637Z,87.47
2023-04-14T22:40:26.016Z,86.93
2023-04-14T22:42:56.109Z,87.38
2023-04-14T22:45:25.864Z,84.63
2023-04-14T22:47:55.849Z,91.93
2023-04-14T22:50:26.030Z,87.53
2023-04-14T22:52:55.984Z,88.90
2023-04-14T22:55:25.744Z,86.15
2023-04-14T22:57:55.738Z,88.68
2023-04-14T23:00:26.229Z,85.80
2023-04-14T23:02:57.263Z,89.90
2023-04-14T23:05:27.101Z,92.70
2023-04-14T23:07:57.083Z,84.55
2023-04-14T23:10:26.918Z,82.47
2023-04-14T23:12:57.051Z,87.72
2023-04-14T23:15:26.678Z,99.28
2023-04-14T23:17:57.146Z,93.38
2023-04-14T23:20:27.088Z,87.68
2023-04-14T23:22:57.601Z,85.85
2023-04-14T23:25:27.210Z,85.25
2023-04-14T23:27:57.066Z,100.55
2023-04-14T23:30:27.534Z,95.45
2023-04-14T23:32:57.919Z,97.45
2023-04-14T23:35:27.656Z,96.22
2023-04-14T23:38:03.554Z,96.90
2023-04-14T23:40:35.195Z,100.03
2023-04-14T23:43:05.293Z,96.63
2023-04-14T23:45:38.494Z,98.32
2023-04-14T23:48:09.193Z,103.65
2023-04-14T23:51:00.487Z,98.78
2023-04-14T23:53:28.906Z,100.22
2023-04-14T23:55:58.908Z,97.70
2023-04-14T23:58:30.353Z,91.55
